sensor_id;sensor_type;location;lat;lon;timestamp;temperature;humidity
61398;DHT22;47267;48.130;-2.040;2023-02-11T00:01:46;19.30;43.40
61398;DHT22;47267;48.130;-2.040;2023-02-11T00:04:11;19.30;43.40
61398;DHT22;47267;48.130;-2.040;2023-02-11T00:06:37;19.30;43.40
61398;DHT22;47267;48.130;-2.040;2023-02-11T00:09:04;19.30;43.40
61398;DHT22;47267;48.130;-2.040;2023-02-11T00:11:30;19.20;43.40
61398;DHT22;47267;48.130;-2.040;2023-02-11T00:14:01;19.30;43.40
61398;DHT22;47267;48.130;-2.040;2023-02-11T00:16:28;19.20;43.30
61398;DHT22;47267;48.130;-2.040;2023-02-11T00:18:55;19.20;43.40
61398;DHT22;47267;48.130;-2.040;2023-02-11T00:21:23;19.20;43.40
61398;DHT22;47267;48.130;-2.040;2023-02-11T00:23:50;19.20;43.30
61398;DHT22;47267;48.130;-2.040;2023-02-11T00:26:27;19.20;43.30
61398;DHT22;47267;48.130;-2.040;2023-02-11T00:28:53;19.20;43.30
61398;DHT22;47267;48.130;-2.040;2023-02-11T00:31:20;19.20;43.40
61398;DHT22;47267;48.130;-2.040;2023-02-11T00:33:46;19.20;43.40
61398;DHT22;47267;48.130;-2.040;2023-02-11T00:36:15;19.20;43.40
61398;DHT22;47267;48.130;-2.040;2023-02-11T00:38:43;19.20;43.40
61398;DHT22;47267;48.130;-2.040;2023-02-11T00:41:10;19.20;43.30
61398;DHT22;47267;48.130;-2.040;2023-02-11T00:43:35;19.20;43.40
61398;DHT22;47267;48.130;-2.040;2023-02-11T00:46:01;19.20;43.30
61398;DHT22;47267;48.130;-2.040;2023-02-11T00:48:27;19.10;43.30
61398;DHT22;47267;48.130;-2.040;2023-02-11T00:50:53;19.10;43.30
61398;DHT22;47267;48.130;-2.040;2023-02-11T00:53:19;19.10;43.30
61398;DHT22;47267;48.130;-2.040;2023-02-11T00:55:44;19.10;43.30
61398;DHT22;47267;48.130;-2.040;2023-02-11T00:58:10;19.10;43.30
61398;DHT22;47267;48.130;-2.040;2023-02-11T01:00:36;19.10;43.30
61398;DHT22;47267;48.130;-2.040;2023-02-11T01:03:02;19.10;43.20
61398;DHT22;47267;48.130;-2.040;2023-02-11T01:05:27;19.10;43.30
61398;DHT22;47267;48.130;-2.040;2023-02-11T01:07:54;19.10;43.30
61398;DHT22;47267;48.130;-2.040;2023-02-11T01:10:20;19.10;43.20
61398;DHT22;47267;48.130;-2.040;2023-02-11T01:12:46;19.10;43.30
61398;DHT22;47267;48.130;-2.040;2023-02-11T01:15:14;19.10;43.20
61398;DHT22;47267;48.130;-2.040;2023-02-11T01:17:40;19.00;43.20
61398;DHT22;47267;48.130;-2.040;2023-02-11T01:20:10;19.00;43.20
61398;DHT22;47267;48.130;-2.040;2023-02-11T01:22:36;19.00;43.20
61398;DHT22;47267;48.130;-2.040;2023-02-11T01:25:05;19.00;43.20
61398;DHT22;47267;48.130;-2.040;2023-02-11T01:27:30;19.00;43.20
61398;DHT22;47267;48.130;-2.040;2023-02-11T01:29:56;19.00;43.20
61398;DHT22;47267;48.130;-2.040;2023-02-11T01:32:22;19.00;43.20
61398;DHT22;47267;48.130;-2.040;2023-02-11T01:34:48;19.00;43.20
61398;DHT22;47267;48.130;-2.040;2023-02-11T01:37:14;19.00;43.20
61398;DHT22;47267;48.130;-2.040;2023-02-11T01:39:40;19.00;43.20
61398;DHT22;47267;48.130;-2.040;2023-02-11T01:42:06;19.00;43.20
61398;DHT22;47267;48.130;-2.040;2023-02-11T01:44:36;19.00;43.20
61398;DHT22;47267;48.130;-2.040;2023-02-11T01:47:02;19.00;43.20
61398;DHT22;47267;48.130;-2.040;2023-02-11T01:49:33;19.00;43.20
61398;DHT22;47267;48.130;-2.040;2023-02-11T01:52:14;18.90;43.10
61398;DHT22;47267;48.130;-2.040;2023-02-11T01:54:46;18.90;43.10
61398;DHT22;47267;48.130;-2.040;2023-02-11T01:57:35;18.90;43.10
61398;DHT22;47267;48.130;-2.040;2023-02-11T02:10:50;18.90;43.00
61398;DHT22;47267;48.130;-2.040;2023-02-11T02:13:23;18.90;43.00
61398;DHT22;47267;48.130;-2.040;2023-02-11T02:16:06;18.90;43.00
61398;DHT22;47267;48.130;-2.040;2023-02-11T02:24:12;18.80;42.90
61398;DHT22;47267;48.130;-2.040;2023-02-11T02:37:35;18.80;43.00
61398;DHT22;47267;48.130;-2.040;2023-02-11T02:40:06;18.80;42.90
61398;DHT22;47267;48.130;-2.040;2023-02-11T02:42:34;18.80;43.00
61398;DHT22;47267;48.130;-2.040;2023-02-11T02:45:01;18.80;42.90
61398;DHT22;47267;48.130;-2.040;2023-02-11T02:47:26;18.80;43.00
61398;DHT22;47267;48.130;-2.040;2023-02-11T02:49:52;18.80;43.00
61398;DHT22;47267;48.130;-2.040;2023-02-11T03:01:20;18.80;43.00
61398;DHT22;47267;48.130;-2.040;2023-02-11T03:06:38;18.80;43.00
61398;DHT22;47267;48.130;-2.040;2023-02-11T03:09:24;18.80;43.00
61398;DHT22;47267;48.130;-2.040;2023-02-11T03:11:50;18.80;43.00
61398;DHT22;47267;48.130;-2.040;2023-02-11T03:14:17;18.80;42.90
61398;DHT22;47267;48.130;-2.040;2023-02-11T03:16:44;18.80;42.90
61398;DHT22;47267;48.130;-2.040;2023-02-11T03:19:14;18.80;42.90
61398;DHT22;47267;48.130;-2.040;2023-02-11T03:21:43;18.80;42.90
61398;DHT22;47267;48.130;-2.040;2023-02-11T03:24:27;18.80;42.90
61398;DHT22;47267;48.130;-2.040;2023-02-11T03:30:08;18.80;42.90
61398;DHT22;47267;48.130;-2.040;2023-02-11T03:33:07;18.80;42.90
61398;DHT22;47267;48.130;-2.040;2023-02-11T03:35:55;18.70;42.80
61398;DHT22;47267;48.130;-2.040;2023-02-11T03:38:28;18.70;42.80
61398;DHT22;47267;48.130;-2.040;2023-02-11T03:40:55;18.70;43.40
61398;DHT22;47267;48.130;-2.040;2023-02-11T03:43:47;18.80;42.90
61398;DHT22;47267;48.130;-2.040;2023-02-11T03:46:13;18.70;42.80
61398;DHT22;47267;48.130;-2.040;2023-02-11T03:48:45;18.80;42.90
61398;DHT22;47267;48.130;-2.040;2023-02-11T03:51:12;18.70;42.80
61398;DHT22;47267;48.130;-2.040;2023-02-11T03:53:42;18.70;42.80
61398;DHT22;47267;48.130;-2.040;2023-02-11T03:56:12;18.70;42.80
61398;DHT22;47267;48.130;-2.040;2023-02-11T03:58:39;18.70;42.80
61398;DHT22;47267;48.130;-2.040;2023-02-11T04:01:05;18.70;42.80
61398;DHT22;47267;48.130;-2.040;2023-02-11T04:03:34;18.70;42.70
61398;DHT22;47267;48.130;-2.040;2023-02-11T04:05:59;18.70;42.80
61398;DHT22;47267;48.130;-2.040;2023-02-11T04:08:25;18.70;42.70
61398;DHT22;47267;48.130;-2.040;2023-02-11T04:10:51;18.70;42.70
61398;DHT22;47267;48.130;-2.040;2023-02-11T04:13:17;18.70;42.80
61398;DHT22;47267;48.130;-2.040;2023-02-11T04:15:42;18.70;42.70
61398;DHT22;47267;48.130;-2.040;2023-02-11T04:18:08;18.70;42.70
61398;DHT22;47267;48.130;-2.040;2023-02-11T04:20:34;18.70;42.70
61398;DHT22;47267;48.130;-2.040;2023-02-11T04:22:59;18.70;42.70
61398;DHT22;47267;48.130;-2.040;2023-02-11T04:25:25;18.70;42.70
61398;DHT22;47267;48.130;-2.040;2023-02-11T04:27:51;18.70;42.70
61398;DHT22;47267;48.130;-2.040;2023-02-11T04:30:17;18.70;42.70
61398;DHT22;47267;48.130;-2.040;2023-02-11T04:32:43;18.70;42.70
61398;DHT22;47267;48.130;-2.040;2023-02-11T04:35:08;18.70;42.70
61398;DHT22;47267;48.130;-2.040;2023-02-11T04:37:34;18.70;42.70
61398;DHT22;47267;48.130;-2.040;2023-02-11T04:40:00;18.70;42.70
61398;DHT22;47267;48.130;-2.040;2023-02-11T04:42:26;18.60;42.60
61398;DHT22;47267;48.130;-2.040;2023-02-11T04:44:52;18.60;42.60
61398;DHT22;47267;48.130;-2.040;2023-02-11T04:47:18;18.60;42.60
61398;DHT22;47267;48.130;-2.040;2023-02-11T04:49:44;18.60;42.60
61398;DHT22;47267;48.130;-2.040;2023-02-11T04:52:10;18.60;42.60
61398;DHT22;47267;48.130;-2.040;2023-02-11T04:54:35;18.60;42.60
61398;DHT22;47267;48.130;-2.040;2023-02-11T04:57:01;18.60;42.50
61398;DHT22;47267;48.130;-2.040;2023-02-11T04:59:28;18.60;42.50
61398;DHT22;47267;48.130;-2.040;2023-02-11T05:01:53;18.60;42.50
61398;DHT22;47267;48.130;-2.040;2023-02-11T05:04:19;18.60;42.50
61398;DHT22;47267;48.130;-2.040;2023-02-11T05:06:45;18.60;42.50
61398;DHT22;47267;48.130;-2.040;2023-02-11T05:09:11;18.60;42.50
61398;DHT22;47267;48.130;-2.040;2023-02-11T05:11:37;18.60;42.60
61398;DHT22;47267;48.130;-2.040;2023-02-11T05:14:05;18.60;42.50
61398;DHT22;47267;48.130;-2.040;2023-02-11T05:16:31;18.60;42.50
61398;DHT22;47267;48.130;-2.040;2023-02-11T05:18:57;18.60;42.50
61398;DHT22;47267;48.130;-2.040;2023-02-11T05:21:23;18.60;42.50
61398;DHT22;47267;48.130;-2.040;2023-02-11T05:23:49;18.60;42.50
61398;DHT22;47267;48.130;-2.040;2023-02-11T05:26:15;18.60;42.50
61398;DHT22;47267;48.130;-2.040;2023-02-11T05:28:42;18.60;42.50
61398;DHT22;47267;48.130;-2.040;2023-02-11T05:31:08;18.60;42.50
61398;DHT22;47267;48.130;-2.040;2023-02-11T05:33:34;18.60;42.50
61398;DHT22;47267;48.130;-2.040;2023-02-11T05:36:05;18.60;42.50
61398;DHT22;47267;48.130;-2.040;2023-02-11T05:38:33;18.60;42.40
61398;DHT22;47267;48.130;-2.040;2023-02-11T05:40:59;18.50;42.40
61398;DHT22;47267;48.130;-2.040;2023-02-11T05:43:24;18.50;42.40
61398;DHT22;47267;48.130;-2.040;2023-02-11T05:45:51;18.50;42.30
61398;DHT22;47267;48.130;-2.040;2023-02-11T05:48:17;18.50;42.30
61398;DHT22;47267;48.130;-2.040;2023-02-11T05:50:43;18.50;42.30
61398;DHT22;47267;48.130;-2.040;2023-02-11T05:53:09;18.50;42.30
61398;DHT22;47267;48.130;-2.040;2023-02-11T05:55:34;18.50;42.30
61398;DHT22;47267;48.130;-2.040;2023-02-11T05:58:00;18.50;42.30
61398;DHT22;47267;48.130;-2.040;2023-02-11T06:00:26;18.50;42.30
61398;DHT22;47267;48.130;-2.040;2023-02-11T06:02:52;18.50;42.30
61398;DHT22;47267;48.130;-2.040;2023-02-11T06:05:18;18.50;42.30
61398;DHT22;47267;48.130;-2.040;2023-02-11T06:07:44;18.50;42.30
61398;DHT22;47267;48.130;-2.040;2023-02-11T06:10:10;18.50;42.30
61398;DHT22;47267;48.130;-2.040;2023-02-11T06:12:37;18.50;42.30
61398;DHT22;47267;48.130;-2.040;2023-02-11T06:15:03;18.50;42.30
61398;DHT22;47267;48.130;-2.040;2023-02-11T06:17:29;18.40;42.20
61398;DHT22;47267;48.130;-2.040;2023-02-11T06:19:59;18.50;42.30
61398;DHT22;47267;48.130;-2.040;2023-02-11T06:22:28;18.50;42.20
61398;DHT22;47267;48.130;-2.040;2023-02-11T06:24:54;18.50;42.30
61398;DHT22;47267;48.130;-2.040;2023-02-11T06:27:20;18.40;42.10
61398;DHT22;47267;48.130;-2.040;2023-02-11T06:29:46;18.40;42.20
61398;DHT22;47267;48.130;-2.040;2023-02-11T06:32:12;18.40;42.10
61398;DHT22;47267;48.130;-2.040;2023-02-11T06:34:38;18.40;42.10
61398;DHT22;47267;48.130;-2.040;2023-02-11T06:37:04;18.40;42.10
61398;DHT22;47267;48.130;-2.040;2023-02-11T06:39:30;18.40;42.10
61398;DHT22;47267;48.130;-2.040;2023-02-11T06:41:56;18.40;42.10
61398;DHT22;47267;48.130;-2.040;2023-02-11T06:44:22;18.40;42.10
61398;DHT22;47267;48.130;-2.040;2023-02-11T06:46:47;18.40;42.10
61398;DHT22;47267;48.130;-2.040;2023-02-11T06:49:13;18.40;42.10
61398;DHT22;47267;48.130;-2.040;2023-02-11T06:51:39;18.40;42.10
61398;DHT22;47267;48.130;-2.040;2023-02-11T06:54:05;18.40;42.10
61398;DHT22;47267;48.130;-2.040;2023-02-11T06:56:31;18.30;42.00
61398;DHT22;47267;48.130;-2.040;2023-02-11T06:58:58;18.40;42.10
61398;DHT22;47267;48.130;-2.040;2023-02-11T07:01:25;18.40;42.10
61398;DHT22;47267;48.130;-2.040;2023-02-11T07:03:52;18.30;42.00
61398;DHT22;47267;48.130;-2.040;2023-02-11T07:06:20;18.30;42.00
61398;DHT22;47267;48.130;-2.040;2023-02-11T07:08:47;18.30;42.00
61398;DHT22;47267;48.130;-2.040;2023-02-11T07:11:19;18.30;42.00
61398;DHT22;47267;48.130;-2.040;2023-02-11T07:13:46;18.30;42.00
61398;DHT22;47267;48.130;-2.040;2023-02-11T07:16:14;18.30;42.00
61398;DHT22;47267;48.130;-2.040;2023-02-11T07:18:40;18.30;42.10
61398;DHT22;47267;48.130;-2.040;2023-02-11T07:21:07;18.30;42.00
61398;DHT22;47267;48.130;-2.040;2023-02-11T07:23:34;18.30;42.00
61398;DHT22;47267;48.130;-2.040;2023-02-11T07:26:04;18.30;42.00
61398;DHT22;47267;48.130;-2.040;2023-02-11T07:28:30;18.30;42.00
61398;DHT22;47267;48.130;-2.040;2023-02-11T07:30:55;18.30;42.00
61398;DHT22;47267;48.130;-2.040;2023-02-11T07:33:22;18.30;42.00
61398;DHT22;47267;48.130;-2.040;2023-02-11T07:35:47;18.30;42.00
61398;DHT22;47267;48.130;-2.040;2023-02-11T07:38:13;18.30;42.00
61398;DHT22;47267;48.130;-2.040;2023-02-11T07:40:39;18.30;42.00
61398;DHT22;47267;48.130;-2.040;2023-02-11T07:43:05;18.30;42.00
61398;DHT22;47267;48.130;-2.040;2023-02-11T07:45:30;18.30;42.00
61398;DHT22;47267;48.130;-2.040;2023-02-11T07:47:56;18.30;42.00
61398;DHT22;47267;48.130;-2.040;2023-02-11T07:50:22;18.30;42.00
61398;DHT22;47267;48.130;-2.040;2023-02-11T07:52:48;18.30;42.00
61398;DHT22;47267;48.130;-2.040;2023-02-11T07:55:13;18.30;42.00
61398;DHT22;47267;48.130;-2.040;2023-02-11T07:57:39;18.20;41.90
61398;DHT22;47267;48.130;-2.040;2023-02-11T08:00:06;18.20;41.90
61398;DHT22;47267;48.130;-2.040;2023-02-11T08:02:31;18.20;41.90
61398;DHT22;47267;48.130;-2.040;2023-02-11T08:04:57;18.20;41.90
61398;DHT22;47267;48.130;-2.040;2023-02-11T08:07:23;18.20;41.90
61398;DHT22;47267;48.130;-2.040;2023-02-11T08:09:49;18.20;41.90
61398;DHT22;47267;48.130;-2.040;2023-02-11T08:12:14;18.20;41.90
61398;DHT22;47267;48.130;-2.040;2023-02-11T08:14:40;18.20;41.90
61398;DHT22;47267;48.130;-2.040;2023-02-11T08:17:06;18.20;41.90
61398;DHT22;47267;48.130;-2.040;2023-02-11T08:19:31;18.20;41.90
61398;DHT22;47267;48.130;-2.040;2023-02-11T08:22:00;18.20;41.90
61398;DHT22;47267;48.130;-2.040;2023-02-11T08:24:26;18.20;41.90
61398;DHT22;47267;48.130;-2.040;2023-02-11T08:26:52;18.20;41.90
61398;DHT22;47267;48.130;-2.040;2023-02-11T08:29:17;18.20;41.90
61398;DHT22;47267;48.130;-2.040;2023-02-11T08:31:47;18.20;41.90
61398;DHT22;47267;48.130;-2.040;2023-02-11T08:34:13;18.20;41.90
61398;DHT22;47267;48.130;-2.040;2023-02-11T08:36:42;18.20;41.90
61398;DHT22;47267;48.130;-2.040;2023-02-11T08:39:18;18.20;41.90
61398;DHT22;47267;48.130;-2.040;2023-02-11T08:41:45;18.20;41.90
61398;DHT22;47267;48.130;-2.040;2023-02-11T08:44:11;18.20;41.90
61398;DHT22;47267;48.130;-2.040;2023-02-11T08:46:37;18.10;41.90
61398;DHT22;47267;48.130;-2.040;2023-02-11T08:49:03;18.20;41.90
61398;DHT22;47267;48.130;-2.040;2023-02-11T08:51:29;18.10;41.90
61398;DHT22;47267;48.130;-2.040;2023-02-11T08:53:56;18.20;42.00
61398;DHT22;47267;48.130;-2.040;2023-02-11T08:56:22;18.10;41.90
61398;DHT22;47267;48.130;-2.040;2023-02-11T08:58:49;18.10;41.90
61398;DHT22;47267;48.130;-2.040;2023-02-11T09:01:23;18.10;41.90
61398;DHT22;47267;48.130;-2.040;2023-02-11T09:03:50;18.10;42.00
61398;DHT22;47267;48.130;-2.040;2023-02-11T09:06:16;18.10;42.00
61398;DHT22;47267;48.130;-2.040;2023-02-11T09:08:45;18.10;42.00
61398;DHT22;47267;48.130;-2.040;2023-02-11T09:11:11;18.10;42.10
61398;DHT22;47267;48.130;-2.040;2023-02-11T09:13:39;18.10;42.10
61398;DHT22;47267;48.130;-2.040;2023-02-11T09:16:06;18.10;42.20
61398;DHT22;47267;48.130;-2.040;2023-02-11T09:18:31;18.10;42.10
61398;DHT22;47267;48.130;-2.040;2023-02-11T09:21:05;18.10;42.20
61398;DHT22;47267;48.130;-2.040;2023-02-11T09:23:31;18.10;42.80
61398;DHT22;47267;48.130;-2.040;2023-02-11T09:26:04;18.10;42.20
61398;DHT22;47267;48.130;-2.040;2023-02-11T09:28:29;18.10;42.30
61398;DHT22;47267;48.130;-2.040;2023-02-11T09:30:55;18.10;42.40
61398;DHT22;47267;48.130;-2.040;2023-02-11T09:33:20;18.20;42.40
61398;DHT22;47267;48.130;-2.040;2023-02-11T09:35:46;18.10;42.30
61398;DHT22;47267;48.130;-2.040;2023-02-11T09:38:12;18.10;42.40
61398;DHT22;47267;48.130;-2.040;2023-02-11T09:40:42;18.10;42.30
61398;DHT22;47267;48.130;-2.040;2023-02-11T09:43:20;18.20;42.40
61398;DHT22;47267;48.130;-2.040;2023-02-11T09:45:47;18.20;42.50
61398;DHT22;47267;48.130;-2.040;2023-02-11T09:48:18;18.10;42.40
61398;DHT22;47267;48.130;-2.040;2023-02-11T09:50:54;18.20;42.50
61398;DHT22;47267;48.130;-2.040;2023-02-11T09:53:30;18.20;42.50
61398;DHT22;47267;48.130;-2.040;2023-02-11T09:55:59;18.20;42.50
61398;DHT22;47267;48.130;-2.040;2023-02-11T09:58:34;18.20;42.60
61398;DHT22;47267;48.130;-2.040;2023-02-11T10:06:49;18.20;42.60
61398;DHT22;47267;48.130;-2.040;2023-02-11T10:12:14;18.20;42.60
61398;DHT22;47267;48.130;-2.040;2023-02-11T10:17:50;18.20;42.60
61398;DHT22;47267;48.130;-2.040;2023-02-11T10:23:24;18.20;42.70
61398;DHT22;47267;48.130;-2.040;2023-02-11T10:25:54;18.20;42.80
61398;DHT22;47267;48.130;-2.040;2023-02-11T10:28:32;18.20;42.70
61398;DHT22;47267;48.130;-2.040;2023-02-11T10:31:12;18.20;42.70
61398;DHT22;47267;48.130;-2.040;2023-02-11T10:34:00;18.20;42.70
61398;DHT22;47267;48.130;-2.040;2023-02-11T10:36:30;18.30;42.80
61398;DHT22;47267;48.130;-2.040;2023-02-11T10:39:18;18.20;42.80
61398;DHT22;47267;48.130;-2.040;2023-02-11T10:41:58;18.30;43.00
61398;DHT22;47267;48.130;-2.040;2023-02-11T10:46:59;18.30;42.90
61398;DHT22;47267;48.130;-2.040;2023-02-11T10:49:52;18.30;42.90
61398;DHT22;47267;48.130;-2.040;2023-02-11T10:52:25;18.30;43.00
61398;DHT22;47267;48.130;-2.040;2023-02-11T10:57:36;18.40;43.10
61398;DHT22;47267;48.130;-2.040;2023-02-11T11:02:43;18.40;43.10
61398;DHT22;47267;48.130;-2.040;2023-02-11T11:05:22;18.40;43.10
61398;DHT22;47267;48.130;-2.040;2023-02-11T11:08:12;18.50;43.10
61398;DHT22;47267;48.130;-2.040;2023-02-11T11:10:44;18.50;43.10
61398;DHT22;47267;48.130;-2.040;2023-02-11T11:18:39;18.50;43.20
61398;DHT22;47267;48.130;-2.040;2023-02-11T11:21:11;18.50;43.20
61398;DHT22;47267;48.130;-2.040;2023-02-11T11:23:38;18.50;43.20
61398;DHT22;47267;48.130;-2.040;2023-02-11T11:26:11;18.50;43.30
61398;DHT22;47267;48.130;-2.040;2023-02-11T11:28:38;18.60;43.60
61398;DHT22;47267;48.130;-2.040;2023-02-11T11:31:13;18.60;43.40
61398;DHT22;47267;48.130;-2.040;2023-02-11T11:33:41;18.60;43.40
61398;DHT22;47267;48.130;-2.040;2023-02-11T11:36:11;18.60;43.40
61398;DHT22;47267;48.130;-2.040;2023-02-11T11:38:53;18.60;43.50
61398;DHT22;47267;48.130;-2.040;2023-02-11T11:44:03;18.60;43.60
61398;DHT22;47267;48.130;-2.040;2023-02-11T11:46:37;18.70;43.60
61398;DHT22;47267;48.130;-2.040;2023-02-11T11:49:24;18.70;43.70
61398;DHT22;47267;48.130;-2.040;2023-02-11T11:52:17;18.70;43.70
61398;DHT22;47267;48.130;-2.040;2023-02-11T11:54:46;18.70;43.80
61398;DHT22;47267;48.130;-2.040;2023-02-11T11:57:17;18.80;43.80
61398;DHT22;47267;48.130;-2.040;2023-02-11T11:59:44;18.70;43.90
61398;DHT22;47267;48.130;-2.040;2023-02-11T12:02:25;18.70;43.80
61398;DHT22;47267;48.130;-2.040;2023-02-11T12:04:58;18.80;44.00
61398;DHT22;47267;48.130;-2.040;2023-02-11T12:23:57;18.90;44.30
61398;DHT22;47267;48.130;-2.040;2023-02-11T12:26:55;18.90;44.30
61398;DHT22;47267;48.130;-2.040;2023-02-11T12:36:59;18.90;44.20
61398;DHT22;47267;48.130;-2.040;2023-02-11T12:42:15;19.00;44.50
61398;DHT22;47267;48.130;-2.040;2023-02-11T12:45:27;19.00;44.50
61398;DHT22;47267;48.130;-2.040;2023-02-11T12:50:56;19.00;44.50
61398;DHT22;47267;48.130;-2.040;2023-02-11T12:58:57;19.10;44.50
61398;DHT22;47267;48.130;-2.040;2023-02-11T13:01:29;19.00;44.40
61398;DHT22;47267;48.130;-2.040;2023-02-11T13:04:46;19.10;44.50
61398;DHT22;47267;48.130;-2.040;2023-02-11T13:06:59;19.10;44.50
61398;DHT22;47267;48.130;-2.040;2023-02-11T13:09:37;19.10;44.40
61398;DHT22;47267;48.130;-2.040;2023-02-11T13:12:05;19.10;44.50
61398;DHT22;47267;48.130;-2.040;2023-02-11T13:14:53;19.10;44.40
61398;DHT22;47267;48.130;-2.040;2023-02-11T13:17:42;19.10;44.40
61398;DHT22;47267;48.130;-2.040;2023-02-11T13:23:36;19.10;44.40
61398;DHT22;47267;48.130;-2.040;2023-02-11T13:26:32;19.10;44.40
61398;DHT22;47267;48.130;-2.040;2023-02-11T13:32:09;19.10;44.40
61398;DHT22;47267;48.130;-2.040;2023-02-11T13:37:31;19.10;44.40
61398;DHT22;47267;48.130;-2.040;2023-02-11T13:40:21;19.10;44.40
61398;DHT22;47267;48.130;-2.040;2023-02-11T13:42:58;19.10;44.40
61398;DHT22;47267;48.130;-2.040;2023-02-11T13:45:38;19.10;44.50
61398;DHT22;47267;48.130;-2.040;2023-02-11T13:48:14;19.20;44.50
61398;DHT22;47267;48.130;-2.040;2023-02-11T13:50:50;19.20;44.50
61398;DHT22;47267;48.130;-2.040;2023-02-11T13:53:18;19.20;44.50
61398;DHT22;47267;48.130;-2.040;2023-02-11T13:55:47;19.20;44.50
61398;DHT22;47267;48.130;-2.040;2023-02-11T14:14:12;19.10;44.50
61398;DHT22;47267;48.130;-2.040;2023-02-11T14:19:42;19.10;44.60
61398;DHT22;47267;48.130;-2.040;2023-02-11T14:29:39;19.10;44.50
61398;DHT22;47267;48.130;-2.040;2023-02-11T14:38:14;19.10;44.50
61398;DHT22;47267;48.130;-2.040;2023-02-11T14:43:23;19.10;44.60
61398;DHT22;47267;48.130;-2.040;2023-02-11T14:45:53;19.10;44.60
61398;DHT22;47267;48.130;-2.040;2023-02-11T14:48:20;19.10;44.60
61398;DHT22;47267;48.130;-2.040;2023-02-11T14:50:52;19.10;44.60
61398;DHT22;47267;48.130;-2.040;2023-02-11T14:53:22;19.00;44.60
61398;DHT22;47267;48.130;-2.040;2023-02-11T14:55:51;19.00;44.60
61398;DHT22;47267;48.130;-2.040;2023-02-11T15:01:17;19.00;44.70
61398;DHT22;47267;48.130;-2.040;2023-02-11T15:03:48;19.00;44.70
61398;DHT22;47267;48.130;-2.040;2023-02-11T15:06:25;19.00;44.70
61398;DHT22;47267;48.130;-2.040;2023-02-11T15:09:04;19.00;45.30
61398;DHT22;47267;48.130;-2.040;2023-02-11T15:11:33;19.00;44.70
61398;DHT22;47267;48.130;-2.040;2023-02-11T15:14:22;19.00;44.70
61398;DHT22;47267;48.130;-2.040;2023-02-11T15:16:49;19.00;44.70
61398;DHT22;47267;48.130;-2.040;2023-02-11T15:21:46;19.00;44.80
61398;DHT22;47267;48.130;-2.040;2023-02-11T15:24:27;19.00;44.80
61398;DHT22;47267;48.130;-2.040;2023-02-11T15:27:08;19.00;44.80
61398;DHT22;47267;48.130;-2.040;2023-02-11T15:29:45;19.00;44.80
61398;DHT22;47267;48.130;-2.040;2023-02-11T15:32:16;19.00;44.90
61398;DHT22;47267;48.130;-2.040;2023-02-11T15:34:43;19.00;44.90
61398;DHT22;47267;48.130;-2.040;2023-02-11T15:37:13;18.90;44.90
61398;DHT22;47267;48.130;-2.040;2023-02-11T15:39:40;18.90;44.80
61398;DHT22;47267;48.130;-2.040;2023-02-11T15:42:25;18.90;44.90
61398;DHT22;47267;48.130;-2.040;2023-02-11T15:47:59;19.00;45.00
61398;DHT22;47267;48.130;-2.040;2023-02-11T15:50:29;18.90;44.90
61398;DHT22;47267;48.130;-2.040;2023-02-11T15:52:56;18.90;44.90
61398;DHT22;47267;48.130;-2.040;2023-02-11T15:55:24;18.90;45.00
61398;DHT22;47267;48.130;-2.040;2023-02-11T15:57:58;18.90;44.90
61398;DHT22;47267;48.130;-2.040;2023-02-11T16:00:33;18.90;44.90
61398;DHT22;47267;48.130;-2.040;2023-02-11T16:03:00;18.90;44.90
61398;DHT22;47267;48.130;-2.040;2023-02-11T16:05:35;18.90;44.90
61398;DHT22;47267;48.130;-2.040;2023-02-11T16:08:23;18.90;45.00
61398;DHT22;47267;48.130;-2.040;2023-02-11T16:11:00;18.80;45.00
61398;DHT22;47267;48.130;-2.040;2023-02-11T16:13:31;18.90;45.00
61398;DHT22;47267;48.130;-2.040;2023-02-11T16:16:33;18.90;45.00
61398;DHT22;47267;48.130;-2.040;2023-02-11T16:18:59;18.90;45.10
61398;DHT22;47267;48.130;-2.040;2023-02-11T16:21:35;18.80;45.00
61398;DHT22;47267;48.130;-2.040;2023-02-11T16:24:05;18.80;45.00
61398;DHT22;47267;48.130;-2.040;2023-02-11T16:26:33;18.80;45.00
61398;DHT22;47267;48.130;-2.040;2023-02-11T16:29:12;18.80;45.00
61398;DHT22;47267;48.130;-2.040;2023-02-11T16:31:42;18.80;45.10
61398;DHT22;47267;48.130;-2.040;2023-02-11T16:34:22;18.80;45.00
61398;DHT22;47267;48.130;-2.040;2023-02-11T16:36:49;18.80;45.10
61398;DHT22;47267;48.130;-2.040;2023-02-11T16:39:16;18.80;45.10
61398;DHT22;47267;48.130;-2.040;2023-02-11T16:41:42;18.80;45.10
61398;DHT22;47267;48.130;-2.040;2023-02-11T16:44:08;18.80;45.10
61398;DHT22;47267;48.130;-2.040;2023-02-11T16:46:35;18.80;45.10
61398;DHT22;47267;48.130;-2.040;2023-02-11T16:49:17;18.80;45.10
61398;DHT22;47267;48.130;-2.040;2023-02-11T16:51:50;18.80;45.70
61398;DHT22;47267;48.130;-2.040;2023-02-11T16:54:17;18.80;45.10
61398;DHT22;47267;48.130;-2.040;2023-02-11T16:56:44;18.80;45.10
61398;DHT22;47267;48.130;-2.040;2023-02-11T16:59:10;18.80;45.10
61398;DHT22;47267;48.130;-2.040;2023-02-11T17:01:37;18.80;45.10
61398;DHT22;47267;48.130;-2.040;2023-02-11T17:04:05;18.70;45.60
61398;DHT22;47267;48.130;-2.040;2023-02-11T17:06:32;18.80;45.10
61398;DHT22;47267;48.130;-2.040;2023-02-11T17:08:58;18.70;45.00
61398;DHT22;47267;48.130;-2.040;2023-02-11T17:11:24;18.80;45.10
61398;DHT22;47267;48.130;-2.040;2023-02-11T17:13:50;18.80;45.10
61398;DHT22;47267;48.130;-2.040;2023-02-11T17:16:21;18.70;45.00
61398;DHT22;47267;48.130;-2.040;2023-02-11T17:18:47;18.70;45.00
61398;DHT22;47267;48.130;-2.040;2023-02-11T17:21:14;18.70;45.00
61398;DHT22;47267;48.130;-2.040;2023-02-11T17:23:40;18.70;45.00
61398;DHT22;47267;48.130;-2.040;2023-02-11T17:26:06;18.70;45.00
61398;DHT22;47267;48.130;-2.040;2023-02-11T17:28:32;18.70;45.00
61398;DHT22;47267;48.130;-2.040;2023-02-11T17:30:58;18.70;45.00
61398;DHT22;47267;48.130;-2.040;2023-02-11T17:33:24;18.70;45.00
61398;DHT22;47267;48.130;-2.040;2023-02-11T17:35:53;18.70;45.00
61398;DHT22;47267;48.130;-2.040;2023-02-11T17:38:18;18.60;44.90
61398;DHT22;47267;48.130;-2.040;2023-02-11T17:40:44;18.60;45.00
61398;DHT22;47267;48.130;-2.040;2023-02-11T17:43:10;18.60;44.90
61398;DHT22;47267;48.130;-2.040;2023-02-11T17:45:40;18.70;45.00
61398;DHT22;47267;48.130;-2.040;2023-02-11T17:48:06;18.60;44.90
61398;DHT22;47267;48.130;-2.040;2023-02-11T17:50:35;18.60;44.90
61398;DHT22;47267;48.130;-2.040;2023-02-11T17:53:01;18.60;44.90
61398;DHT22;47267;48.130;-2.040;2023-02-11T17:55:26;18.60;44.80
61398;DHT22;47267;48.130;-2.040;2023-02-11T17:57:52;18.60;44.80
61398;DHT22;47267;48.130;-2.040;2023-02-11T18:00:18;18.60;44.90
61398;DHT22;47267;48.130;-2.040;2023-02-11T18:02:47;18.60;44.80
61398;DHT22;47267;48.130;-2.040;2023-02-11T18:05:13;18.60;44.80
61398;DHT22;47267;48.130;-2.040;2023-02-11T18:07:39;18.60;44.80
61398;DHT22;47267;48.130;-2.040;2023-02-11T18:10:06;18.60;44.80
61398;DHT22;47267;48.130;-2.040;2023-02-11T18:12:32;18.60;44.80